createdAt,value
2023-08-29T19:00:35.955Z,64.11
2023-08-29T19:03:04.365Z,63.94
2023-08-29T19:05:33.265Z,63.38
2023-08-29T19:08:00.252Z,63.45
2023-08-29T19:10:28.333Z,63.00
2023-08-29T19:12:55.124Z,62.97
2023-08-29T19:15:26.540Z,62.79
2023-08-29T19:17:53.820Z,62.68
2023-08-29T19:20:20.762Z,62.46
2023-08-29T19:22:47.805Z,62.19
2023-08-29T19:25:17.804Z,61.60
2023-08-29T19:27:44.818Z,61.59
2023-08-29T19:30:14.945Z,62.15
2023-08-29T19:32:41.830Z,61.87
2023-08-29T19:35:09.741Z,61.85
2023-08-29T19:37:36.612Z,61.75
2023-08-29T19:40:03.688Z,61.80
2023-08-29T19:42:31.112Z,62.02
2023-08-29T19:44:58.060Z,61.97
2023-08-29T19:47:26.858Z,62.12
2023-08-29T19:49:53.626Z,62.13
2023-08-29T19:52:20.858Z,61.82
2023-08-29T19:54:47.735Z,61.76
2023-08-29T19:57:14.669Z,61.82
2023-08-29T19:59:41.557Z,62.09
2023-08-29T20:02:08.454Z,61.87
2023-08-29T20:04:35.348Z,61.48
2023-08-29T20:07:02.189Z,61.47
2023-08-29T20:09:29.478Z,60.49
2023-08-29T20:11:58.773Z,60.03
2023-08-29T20:14:25.737Z,60.27
2023-08-29T20:16:53.757Z,60.01
2023-08-29T20:19:25.191Z,60.38
2023-08-29T20:21:52.578Z,60.19
2023-08-29T20:24:21.248Z,59.21
2023-08-29T20:26:48.548Z,59.95
2023-08-29T20:29:16.762Z,59.72
2023-08-29T20:31:44.019Z,59.42
2023-08-29T20:34:11.073Z,60.19
2023-08-29T20:36:37.926Z,60.17
2023-08-29T20:39:04.884Z,60.71
2023-08-29T20:41:31.759Z,60.12
2023-08-29T20:43:58.543Z,60.04
2023-08-29T20:46:25.461Z,59.50
2023-08-29T20:48:53.381Z,60.17
2023-08-29T20:51:20.354Z,59.51
2023-08-29T20:53:47.257Z,59.78
2023-08-29T20:56:14.080Z,60.12
2023-08-29T20:58:40.943Z,59.49
2023-08-29T21:01:07.865Z,59.98
2023-08-29T21:03:34.886Z,59.77
2023-08-29T21:06:01.775Z,59.32
2023-08-29T21:08:28.644Z,59.51
2023-08-29T21:10:55.991Z,59.31
2023-08-29T21:13:23.668Z,59.83
2023-08-29T21:15:50.902Z,59.92
2023-08-29T21:18:19.405Z,60.34
2023-08-29T21:20:58.464Z,59.73
2023-08-29T21:23:25.677Z,60.56
2023-08-29T21:25:53.168Z,60.92
2023-08-29T21:28:25.019Z,60.80
2023-08-29T21:30:53.428Z,61.11
2023-08-29T21:33:20.806Z,60.79
2023-08-29T21:35:48.966Z,61.20
2023-08-29T21:38:16.250Z,61.52
2023-08-29T21:40:46.493Z,61.50
2023-08-29T21:43:16.613Z,61.95
2023-08-29T21:45:55.012Z,61.77
2023-08-29T21:48:24.294Z,61.65
2023-08-29T21:50:52.278Z,62.10
2023-08-29T21:53:19.137Z,62.35
2023-08-29T21:55:46.820Z,62.28
2023-08-29T21:58:17.795Z,62.18
2023-08-29T22:00:52.400Z,62.46
2023-08-29T22:03:23.983Z,62.56
2023-08-29T22:05:51.244Z,62.53
2023-08-29T22:08:19.371Z,63.17
2023-08-29T22:10:46.672Z,63.18
2023-08-29T22:13:13.677Z,63.41
2023-08-29T22:15:40.734Z,63.53
2023-08-29T22:18:09.114Z,63.35
2023-08-29T22:20:36.293Z,63.22
2023-08-29T22:23:03.376Z,63.48
2023-08-29T22:25:30.258Z,63.90
2023-08-29T22:27:57.317Z,64.29
2023-08-29T22:30:25.595Z,64.38
2023-08-29T22:32:55.786Z,64.36
2023-08-29T22:35:22.948Z,64.23
2023-08-29T22:37:49.880Z,64.39
2023-08-29T22:40:17.861Z,64.26
2023-08-29T22:42:45.697Z,64.45
2023-08-29T22:45:18.442Z,64.41
2023-08-29T22:47:45.303Z,64.13
2023-08-29T22:50:12.258Z,64.03
2023-08-29T22:52:43.084Z,64.13
2023-08-29T22:55:10.411Z,64.28
2023-08-29T22:57:37.223Z,64.50
2023-08-29T23:00:05.969Z,64.86
2023-08-29T23:02:32.813Z,65.60
2023-08-29T23:05:02.070Z,65.73
2023-08-29T23:07:31.774Z,66.41
2023-08-29T23:10:00.276Z,66.97
2023-08-29T23:12:27.163Z,66.31
2023-08-29T23:14:56.121Z,66.76
2023-08-29T23:17:22.961Z,67.55
2023-08-29T23:19:49.733Z,68.30
2023-08-29T23:22:16.999Z,66.75
2023-08-29T23:24:43.798Z,63.99
2023-08-29T23:27:10.912Z,63.78
2023-08-29T23:29:37.741Z,65.23
2023-08-29T23:32:05.970Z,65.42
2023-08-29T23:34:34.965Z,65.80
2023-08-29T23:37:01.759Z,67.58
2023-08-29T23:39:28.618Z,63.46
2023-08-29T23:41:57.043Z,62.27
2023-08-29T23:44:23.975Z,61.18
2023-08-29T23:47:06.181Z,59.83
2023-08-29T23:49:32.961Z,60.94
2023-08-29T23:51:59.783Z,59.82
2023-08-29T23:54:32.588Z,58.89
2023-08-29T23:56:59.534Z,62.56
2023-08-29T23:59:28.731Z,61.81
